createdAt,value
2023-03-11T00:01:12.947Z,97746.78
2023-03-11T00:03:41.754Z,97757.81
2023-03-11T00:06:09.990Z,97756.31
2023-03-11T00:08:40.174Z,97761.44
2023-03-11T00:11:08.584Z,97769.44
2023-03-11T00:13:37.978Z,97767.88
2023-03-11T00:16:07.276Z,97774.75
2023-03-11T00:18:35.856Z,97788.09
2023-03-11T00:21:04.298Z,97785.34
2023-03-11T00:23:32.928Z,97796.44
2023-03-11T00:26:04.098Z,97805.13
2023-03-11T00:28:34.406Z,97802.03
2023-03-11T00:31:03.741Z,97807.56
2023-03-11T00:33:34.301Z,97834.03
2023-03-11T00:36:02.837Z,97839.34
2023-03-11T00:38:31.137Z,97842.44
2023-03-11T00:41:01.859Z,97850.16
2023-03-11T00:43:32.370Z,97861.09
2023-03-11T00:46:01.662Z,97854.53
2023-03-11T00:48:30.144Z,97851.00
2023-03-11T00:50:58.687Z,97854.28
2023-03-11T00:53:26.710Z,97854.03
2023-03-11T00:55:55.120Z,97867.16
2023-03-11T00:58:28.375Z,97863.97
2023-03-11T01:00:58.584Z,97865.50
2023-03-11T01:03:27.556Z,97872.69
2023-03-11T01:05:55.918Z,97875.66
2023-03-11T01:08:24.005Z,97891.22
2023-03-11T01:10:52.523Z,97888.72
2023-03-11T01:13:21.445Z,97888.97
2023-03-11T01:15:49.839Z,97893.28
2023-03-11T01:18:20.601Z,97901.53
2023-03-11T01:20:49.817Z,97891.75
2023-03-11T01:23:20.864Z,97907.72
2023-03-11T01:25:49.154Z,97904.28
2023-03-11T01:28:17.587Z,97897.22
2023-03-11T01:30:46.742Z,97904.28
2023-03-11T01:33:18.587Z,97902.34
2023-03-11T01:35:49.433Z,97906.03
2023-03-11T01:38:20.052Z,97905.28
2023-03-11T01:40:50.481Z,97902.22
2023-03-11T01:43:50.650Z,97914.56
2023-03-11T01:46:21.720Z,97901.06
2023-03-11T01:48:51.946Z,97907.72
2023-03-11T01:51:27.284Z,97911.94
2023-03-11T01:53:57.297Z,97910.19
2023-03-11T01:56:27.045Z,97915.97
2023-03-11T01:58:56.329Z,97913.44
2023-03-11T02:01:26.130Z,97922.94
2023-03-11T02:03:55.156Z,97933.03
2023-03-11T02:06:26.679Z,97932.25
2023-03-11T02:08:56.097Z,97938.44
2023-03-11T02:11:28.574Z,97943.38
2023-03-11T02:14:00.765Z,97953.81
2023-03-11T02:16:29.552Z,97947.41
2023-03-11T02:19:02.218Z,97943.88
2023-03-11T02:21:34.972Z,97949.78
2023-03-11T02:24:15.169Z,97937.41
2023-03-11T02:26:56.162Z,97943.72
2023-03-11T02:29:26.627Z,97949.94
2023-03-11T02:31:56.166Z,97944.81
2023-03-11T02:34:27.405Z,97943.31
2023-03-11T02:36:55.806Z,97946.06
2023-03-11T02:39:32.671Z,97958.69
2023-03-11T02:42:06.955Z,97960.22
2023-03-11T02:44:36.510Z,97952.22
2023-03-11T02:47:05.092Z,97966.88
2023-03-11T02:49:34.777Z,97967.38
2023-03-11T02:52:03.366Z,97978.06
2023-03-11T02:54:33.906Z,97975.59
2023-03-11T02:57:05.600Z,97976.28
2023-03-11T02:59:33.914Z,97978.38
2023-03-11T03:02:02.023Z,97979.13
2023-03-11T03:04:30.424Z,97982.50
2023-03-11T03:06:58.769Z,97981.81
2023-03-11T03:09:27.794Z,97984.00
2023-03-11T03:11:55.874Z,97990.47
2023-03-11T03:14:25.591Z,97994.06
2023-03-11T03:16:56.394Z,98008.94
2023-03-11T03:19:25.245Z,98023.00
2023-03-11T03:21:53.678Z,98024.19
2023-03-11T03:24:21.768Z,98012.28
2023-03-11T03:26:50.008Z,98023.13
2023-03-11T03:29:19.765Z,98028.06
2023-03-11T03:31:49.374Z,98031.41
2023-03-11T03:34:17.787Z,98029.56
2023-03-11T03:36:46.164Z,98034.41
2023-03-11T03:39:14.569Z,98040.47
2023-03-11T03:41:42.922Z,98042.78
2023-03-11T03:44:11.227Z,98044.91
2023-03-11T03:46:40.618Z,98044.28
2023-03-11T03:49:10.233Z,98049.56
2023-03-11T03:51:38.467Z,98056.34
2023-03-11T03:54:06.663Z,98062.28
2023-03-11T03:56:34.739Z,98061.56
2023-03-11T03:59:03.153Z,98056.31
2023-03-11T04:01:31.414Z,98069.13
2023-03-11T04:03:59.653Z,98063.63
2023-03-11T04:06:31.123Z,98062.59
2023-03-11T04:08:59.649Z,98065.19
2023-03-11T04:11:28.040Z,98067.81
2023-03-11T04:13:56.397Z,98067.41
2023-03-11T04:16:26.507Z,98073.94
2023-03-11T04:18:54.761Z,98077.31
2023-03-11T04:21:23.206Z,98077.72
2023-03-11T04:23:52.970Z,98082.59
2023-03-11T04:26:24.674Z,98079.16
2023-03-11T04:28:53.389Z,98075.97
2023-03-11T04:31:21.873Z,98076.72
2023-03-11T04:33:50.070Z,98082.94
2023-03-11T04:36:19.073Z,98078.56
2023-03-11T04:38:48.580Z,98079.16
2023-03-11T04:41:18.367Z,98078.31
2023-03-11T04:43:46.630Z,98085.53
2023-03-11T04:46:14.808Z,98085.22
2023-03-11T04:48:43.851Z,98088.53
2023-03-11T04:51:14.494Z,98087.53
2023-03-11T04:53:42.684Z,98090.03
2023-03-11T04:56:11.058Z,98103.34
2023-03-11T04:58:42.415Z,98105.41
2023-03-11T05:01:10.580Z,98098.88
2023-03-11T05:03:38.857Z,98112.00
2023-03-11T05:06:07.279Z,98112.91
2023-03-11T05:08:35.855Z,98111.16
2023-03-11T05:11:04.453Z,98101.41
2023-03-11T05:13:32.802Z,98110.25
2023-03-11T05:16:06.107Z,98112.78
2023-03-11T05:18:34.277Z,98112.28
2023-03-11T05:21:02.669Z,98118.38
2023-03-11T05:23:31.012Z,98123.34
2023-03-11T05:25:59.709Z,98127.78
2023-03-11T05:28:27.955Z,98123.16
2023-03-11T05:30:56.160Z,98129.41
2023-03-11T05:33:25.918Z,98135.34
2023-03-11T05:35:54.231Z,98140.28
2023-03-11T05:38:22.762Z,98133.97
2023-03-11T05:40:51.237Z,98142.91
2023-03-11T05:43:19.711Z,98142.06
2023-03-11T05:45:47.805Z,98142.81
2023-03-11T05:48:16.102Z,98155.34
2023-03-11T05:50:46.384Z,98147.09
2023-03-11T05:53:14.439Z,98150.81
2023-03-11T05:55:43.093Z,98150.97
2023-03-11T05:58:11.738Z,98154.41
2023-03-11T06:00:39.999Z,98162.28
2023-03-11T06:03:09.462Z,98166.69
2023-03-11T06:05:39.392Z,98153.22
2023-03-11T06:08:12.029Z,98156.03
2023-03-11T06:10:43.335Z,98156.03
2023-03-11T06:13:12.223Z,98163.91
2023-03-11T06:15:40.505Z,98165.84
2023-03-11T06:18:08.727Z,98169.44
2023-03-11T06:20:38.065Z,98164.69
2023-03-11T06:23:07.812Z,98159.03
2023-03-11T06:25:38.273Z,98170.38
2023-03-11T06:28:06.796Z,98181.25
2023-03-11T06:30:36.554Z,98186.53
2023-03-11T06:33:04.699Z,98187.88
2023-03-11T06:35:33.339Z,98194.53
2023-03-11T06:38:01.601Z,98194.53
2023-03-11T06:40:29.909Z,98195.69
2023-03-11T06:42:59.820Z,98207.88
2023-03-11T06:45:28.466Z,98211.72
2023-03-11T06:47:56.629Z,98215.38
2023-03-11T06:50:26.159Z,98215.97
2023-03-11T06:52:54.473Z,98229.34
2023-03-11T06:55:23.037Z,98232.19
2023-03-11T06:57:51.344Z,98234.50
2023-03-11T07:00:22.703Z,98241.34
2023-03-11T07:02:51.589Z,98239.47
2023-03-11T07:05:20.204Z,98244.06
2023-03-11T07:07:49.903Z,98246.75
2023-03-11T07:10:18.799Z,98255.91
2023-03-11T07:12:47.529Z,98253.53
2023-03-11T07:15:16.049Z,98257.78
2023-03-11T07:17:45.707Z,98269.94
2023-03-11T07:20:14.617Z,98264.53
2023-03-11T07:22:42.917Z,98272.63
2023-03-11T07:25:11.533Z,98263.97
2023-03-11T07:27:39.651Z,98273.09
2023-03-11T07:30:09.226Z,98274.00
2023-03-11T07:32:37.630Z,98281.91
2023-03-11T07:35:10.242Z,98285.31
2023-03-11T07:37:38.387Z,98281.00
2023-03-11T07:40:07.604Z,98283.47
2023-03-11T07:42:35.780Z,98305.66
2023-03-11T07:45:04.672Z,98307.16
2023-03-11T07:47:32.816Z,98322.75
2023-03-11T07:50:01.241Z,98315.72
2023-03-11T07:52:34.641Z,98318.53
2023-03-11T07:55:04.386Z,98327.44
2023-03-11T07:57:32.888Z,98314.66
2023-03-11T08:00:01.728Z,98329.81
2023-03-11T08:02:30.444Z,98331.97
2023-03-11T08:05:00.362Z,98323.75
2023-03-11T08:07:28.747Z,98339.34
2023-03-11T08:09:58.753Z,98349.41
2023-03-11T08:12:27.238Z,98350.81
2023-03-11T08:14:55.681Z,98355.78
2023-03-11T08:17:23.812Z,98357.16
2023-03-11T08:19:51.988Z,98365.97
2023-03-11T08:22:20.350Z,98359.69
2023-03-11T08:24:52.483Z,98363.22
2023-03-11T08:27:22.168Z,98371.06
2023-03-11T08:29:50.322Z,98376.22
2023-03-11T08:32:18.484Z,98375.34
2023-03-11T08:34:46.647Z,98391.41
2023-03-11T08:37:15.235Z,98389.28
2023-03-11T08:39:43.633Z,98386.78
2023-03-11T08:42:11.955Z,98394.88
2023-03-11T08:44:41.998Z,98377.47
2023-03-11T08:47:10.345Z,98395.78
2023-03-11T08:49:41.140Z,98391.47
2023-03-11T08:52:09.663Z,98393.09
2023-03-11T08:54:37.631Z,98402.28
2023-03-11T08:57:05.684Z,98408.84
2023-03-11T08:59:34.084Z,98407.03
2023-03-11T09:02:07.331Z,98416.34
2023-03-11T09:04:35.727Z,98416.84
2023-03-11T09:07:05.222Z,98423.00
2023-03-11T09:09:33.986Z,98427.38
2023-03-11T09:12:02.331Z,98431.16
2023-03-11T09:14:30.477Z,98429.97
2023-03-11T09:17:00.712Z,98432.13
2023-03-11T09:19:30.549Z,98423.06
2023-03-11T09:22:01.599Z,98425.53
2023-03-11T09:24:31.455Z,98432.00
2023-03-11T09:26:59.743Z,98432.53
2023-03-11T09:29:27.932Z,98434.00
2023-03-11T09:31:56.185Z,98433.31
2023-03-11T09:34:24.397Z,98432.91
2023-03-11T09:36:54.366Z,98439.97
2023-03-11T09:39:22.748Z,98435.25
2023-03-11T09:41:58.895Z,98446.66
2023-03-11T09:44:35.673Z,98453.22
2023-03-11T09:47:40.039Z,98455.31
2023-03-11T09:50:22.919Z,98462.19
2023-03-11T09:53:02.974Z,98464.06
2023-03-11T09:55:45.081Z,98459.28
2023-03-11T09:58:23.084Z,98468.25
2023-03-11T10:00:52.925Z,98462.31
2023-03-11T10:03:31.961Z,98467.25
2023-03-11T10:06:09.187Z,98463.84
2023-03-11T10:08:45.382Z,98469.56
2023-03-11T10:11:37.296Z,98458.25
2023-03-11T10:14:21.130Z,98459.22
2023-03-11T10:16:58.508Z,98463.16
2023-03-11T10:19:40.755Z,98467.47
2023-03-11T10:22:16.595Z,98471.88
2023-03-11T10:24:59.386Z,98466.44
2023-03-11T10:27:33.350Z,98470.03
2023-03-11T10:30:11.609Z,98463.75
2023-03-11T10:32:44.292Z,98465.25
2023-03-11T10:35:20.099Z,98468.06
2023-03-11T10:37:55.172Z,98471.31
2023-03-11T10:40:42.643Z,98458.84
2023-03-11T10:43:15.808Z,98456.19
2023-03-11T10:45:46.564Z,98468.31
2023-03-11T10:48:17.072Z,98473.78
2023-03-11T10:50:52.316Z,98469.03
2023-03-11T10:53:21.550Z,98467.09
2023-03-11T10:55:53.568Z,98466.78
2023-03-11T10:58:23.826Z,98467.31
2023-03-11T11:01:04.197Z,98468.06
2023-03-11T11:03:34.550Z,98473.97
2023-03-11T11:06:06.307Z,98465.81
2023-03-11T11:08:36.016Z,98458.53
2023-03-11T11:11:13.779Z,98463.19
2023-03-11T11:13:41.919Z,98468.03
2023-03-11T11:16:21.668Z,98471.31
2023-03-11T11:18:52.450Z,98476.59
2023-03-11T11:21:33.161Z,98476.69
2023-03-11T11:24:21.892Z,98477.22
2023-03-11T11:30:16.388Z,98485.16
2023-03-11T11:32:45.113Z,98476.59
2023-03-11T11:35:15.257Z,98483.31
2023-03-11T11:37:49.094Z,98484.13
2023-03-11T11:40:30.082Z,98488.63
2023-03-11T11:43:01.725Z,98478.81
2023-03-11T11:45:38.336Z,98473.66
2023-03-11T11:48:13.636Z,98478.19
2023-03-11T11:50:44.792Z,98472.84
2023-03-11T11:53:22.811Z,98467.44
2023-03-11T11:55:54.323Z,98469.00
2023-03-11T11:58:23.318Z,98470.75
2023-03-11T12:01:15.102Z,98475.66
2023-03-11T12:04:27.227Z,98473.66
2023-03-11T12:07:12.169Z,98476.69
2023-03-11T12:09:51.282Z,98454.59
2023-03-11T12:12:28.817Z,98463.94
2023-03-11T12:15:03.386Z,98464.38
2023-03-11T12:17:36.100Z,98468.59
2023-03-11T12:20:11.501Z,98465.25
2023-03-11T12:23:13.317Z,98467.06
2023-03-11T12:25:49.438Z,98464.63
2023-03-11T12:28:23.658Z,98468.66
2023-03-11T12:30:54.886Z,98470.72
2023-03-11T12:33:32.693Z,98467.19
2023-03-11T12:36:01.931Z,98466.00
2023-03-11T12:38:35.351Z,98466.84
2023-03-11T12:41:08.999Z,98467.88
2023-03-11T12:44:04.576Z,98457.69
2023-03-11T12:47:12.563Z,98461.47
2023-03-11T12:49:45.040Z,98453.88
2023-03-11T12:52:30.767Z,98466.31
2023-03-11T12:55:34.384Z,98458.13
2023-03-11T12:58:35.169Z,98457.97
2023-03-11T13:01:41.329Z,98461.41
2023-03-11T13:04:34.439Z,98454.00
2023-03-11T13:07:40.726Z,98472.53
2023-03-11T13:10:39.408Z,98464.84
2023-03-11T13:13:47.339Z,98474.63
2023-03-11T13:16:38.058Z,98458.34
2023-03-11T13:19:44.661Z,98455.25
2023-03-11T13:23:07.634Z,98464.56
2023-03-11T13:25:41.442Z,98470.72
2023-03-11T13:28:39.133Z,98480.81
2023-03-11T13:31:20.203Z,98486.25
2023-03-11T13:33:53.778Z,98485.03
2023-03-11T13:36:42.671Z,98502.28
2023-03-11T13:39:46.870Z,98508.97
2023-03-11T13:42:30.920Z,98505.75
2023-03-11T13:45:00.102Z,98518.06
2023-03-11T13:47:30.580Z,98517.31
2023-03-11T13:50:04.122Z,98508.41
2023-03-11T13:52:35.073Z,98512.88
2023-03-11T13:55:06.600Z,98512.50
2023-03-11T13:57:37.558Z,98523.91
2023-03-11T14:00:17.947Z,98520.44
2023-03-11T14:02:51.357Z,98508.97
2023-03-11T14:05:22.590Z,98511.22
2023-03-11T14:07:50.773Z,98516.22
2023-03-11T14:10:22.095Z,98509.56
2023-03-11T14:12:53.405Z,98511.78
2023-03-11T14:15:25.172Z,98514.56
2023-03-11T14:17:54.405Z,98512.47
2023-03-11T14:20:25.660Z,98517.19
2023-03-11T14:23:00.135Z,98511.63
2023-03-11T14:25:31.362Z,98511.09
2023-03-11T14:28:03.421Z,98512.22
2023-03-11T14:30:35.712Z,98504.94
2023-03-11T14:33:05.879Z,98500.97
2023-03-11T14:35:35.658Z,98507.66
2023-03-11T14:38:03.924Z,98498.63
2023-03-11T14:40:39.222Z,98504.66
2023-03-11T14:43:10.123Z,98502.66
2023-03-11T14:45:41.184Z,98505.50
2023-03-11T14:48:16.677Z,98500.09
2023-03-11T14:50:49.701Z,98500.50
2023-03-11T14:53:24.230Z,98495.47
2023-03-11T14:55:57.252Z,98505.53
2023-03-11T14:58:34.678Z,98505.84
2023-03-11T15:01:07.737Z,98503.97
2023-03-11T15:03:39.950Z,98513.66
2023-03-11T15:06:11.340Z,98507.63
2023-03-11T15:08:45.941Z,98514.31
2023-03-11T15:11:25.686Z,98498.97
2023-03-11T15:13:57.276Z,98501.06
2023-03-11T15:16:33.141Z,98505.34
2023-03-11T15:19:03.212Z,98511.91
2023-03-11T15:21:31.940Z,98505.84
2023-03-11T15:24:05.410Z,98508.41
2023-03-11T15:26:35.959Z,98498.69
2023-03-11T15:29:15.330Z,98501.44
2023-03-11T15:31:46.863Z,98497.50
2023-03-11T15:34:30.731Z,98497.06
2023-03-11T15:37:03.852Z,98493.75
2023-03-11T15:39:51.324Z,98500.97
2023-03-11T15:42:23.022Z,98505.91
2023-03-11T15:45:16.808Z,98507.28
2023-03-11T15:47:46.048Z,98511.91
2023-03-11T15:50:28.571Z,98517.72
2023-03-11T15:53:00.722Z,98527.84
2023-03-11T15:55:29.177Z,98530.13
2023-03-11T15:58:04.169Z,98546.78
2023-03-11T16:00:37.353Z,98542.44
2023-03-11T16:03:06.375Z,98543.63
2023-03-11T16:05:35.141Z,98546.38
2023-03-11T16:08:03.242Z,98542.28
2023-03-11T16:10:31.627Z,98544.31
2023-03-11T16:12:59.992Z,98545.81
2023-03-11T16:15:31.870Z,98552.50
2023-03-11T16:18:03.667Z,98552.94
2023-03-11T16:20:36.420Z,98549.16
2023-03-11T16:23:05.737Z,98547.81
2023-03-11T16:25:37.540Z,98552.91
2023-03-11T16:28:06.335Z,98556.47
2023-03-11T16:30:38.051Z,98553.84
2023-03-11T16:33:07.489Z,98549.69
2023-03-11T16:35:36.271Z,98544.69
2023-03-11T16:38:04.556Z,98552.69
2023-03-11T16:40:32.892Z,98555.13
2023-03-11T16:43:03.172Z,98548.59
2023-03-11T16:45:31.753Z,98546.22
2023-03-11T16:48:00.199Z,98553.53
2023-03-11T16:50:30.409Z,98548.63
2023-03-11T16:52:59.617Z,98545.25
2023-03-11T16:55:29.591Z,98552.75
2023-03-11T16:57:58.471Z,98549.59
2023-03-11T17:00:27.188Z,98544.03
2023-03-11T17:02:55.270Z,98547.34
2023-03-11T17:05:23.863Z,98560.00
2023-03-11T17:08:00.900Z,98564.75
2023-03-11T17:10:29.856Z,98568.00
2023-03-11T17:12:58.284Z,98569.66
2023-03-11T17:15:27.816Z,98583.06
2023-03-11T17:17:56.149Z,98576.66
2023-03-11T17:20:24.914Z,98572.69
2023-03-11T17:22:53.376Z,98581.88
2023-03-11T17:25:22.848Z,98583.94
2023-03-11T17:27:51.191Z,98587.97
2023-03-11T17:30:35.589Z,98584.34
2023-03-11T17:33:05.090Z,98589.34
2023-03-11T17:35:33.692Z,98596.94
2023-03-11T17:38:02.353Z,98590.53
2023-03-11T17:40:32.958Z,98596.81
2023-03-11T17:43:01.469Z,98598.31
2023-03-11T17:45:30.932Z,98606.63
2023-03-11T17:47:59.106Z,98597.94
2023-03-11T17:50:27.647Z,98609.81
2023-03-11T17:52:57.723Z,98604.13
2023-03-11T17:55:26.625Z,98605.47
2023-03-11T17:57:56.415Z,98605.50
2023-03-11T18:00:24.992Z,98607.50
2023-03-11T18:02:53.427Z,98612.13
2023-03-11T18:05:22.312Z,98618.28
2023-03-11T18:07:50.863Z,98622.41
2023-03-11T18:10:19.105Z,98619.47
2023-03-11T18:12:52.207Z,98623.13
2023-03-11T18:15:22.813Z,98625.06
2023-03-11T18:17:51.152Z,98632.03
2023-03-11T18:20:20.519Z,98628.00
2023-03-11T18:22:49.021Z,98626.75
2023-03-11T18:25:17.386Z,98633.31
2023-03-11T18:27:45.793Z,98635.66
2023-03-11T18:30:15.748Z,98634.63
2023-03-11T18:32:45.778Z,98646.63
2023-03-11T18:35:14.537Z,98648.72
2023-03-11T18:37:43.243Z,98646.69
2023-03-11T18:40:12.679Z,98646.56
2023-03-11T18:42:42.223Z,98654.28
2023-03-11T18:45:12.446Z,98652.22
2023-03-11T18:47:40.904Z,98658.69
2023-03-11T18:50:12.296Z,98647.00
2023-03-11T18:52:40.431Z,98660.72
2023-03-11T18:55:10.659Z,98645.53
2023-03-11T18:57:40.483Z,98654.00
2023-03-11T19:00:10.213Z,98655.25
2023-03-11T19:02:38.723Z,98659.59
2023-03-11T19:05:07.851Z,98655.34
2023-03-11T19:07:37.594Z,98653.19
2023-03-11T19:10:06.662Z,98650.97
2023-03-11T19:12:35.010Z,98656.06
2023-03-11T19:15:03.592Z,98641.03
2023-03-11T19:17:31.943Z,98646.31
2023-03-11T19:20:00.339Z,98644.97
2023-03-11T19:22:28.464Z,98646.56
2023-03-11T19:25:00.202Z,98646.84
2023-03-11T19:27:28.464Z,98653.84
2023-03-11T19:29:59.358Z,98661.81
2023-03-11T19:32:27.757Z,98662.03
2023-03-11T19:34:56.238Z,98663.28
2023-03-11T19:37:24.337Z,98654.38
2023-03-11T19:39:52.670Z,98649.44
2023-03-11T19:42:23.255Z,98653.59
2023-03-11T19:44:51.693Z,98647.50
2023-03-11T19:47:19.786Z,98653.97
2023-03-11T19:49:48.274Z,98655.75
2023-03-11T19:52:16.829Z,98652.81
2023-03-11T19:54:45.010Z,98650.84
2023-03-11T19:57:13.506Z,98667.22
2023-03-11T19:59:43.223Z,98663.78
2023-03-11T20:02:12.788Z,98663.91
2023-03-11T20:04:43.345Z,98670.88
2023-03-11T20:07:12.050Z,98667.72
2023-03-11T20:09:40.458Z,98680.91
2023-03-11T20:12:09.559Z,98683.13
2023-03-11T20:14:37.653Z,98683.97
2023-03-11T20:17:07.928Z,98685.09
2023-03-11T20:19:37.749Z,98684.75
2023-03-11T20:22:06.066Z,98682.44
2023-03-11T20:24:34.463Z,98680.19
2023-03-11T20:27:03.123Z,98680.44
2023-03-11T20:29:31.425Z,98681.56
2023-03-11T20:32:01.176Z,98676.63
2023-03-11T20:34:31.090Z,98682.63
2023-03-11T20:37:00.616Z,98670.66
2023-03-11T20:39:29.225Z,98680.38
2023-03-11T20:41:57.696Z,98683.78
2023-03-11T20:44:26.961Z,98680.81
2023-03-11T20:46:56.168Z,98686.56
2023-03-11T20:49:24.517Z,98686.72
2023-03-11T20:51:54.269Z,98690.63
2023-03-11T20:54:23.160Z,98695.78
2023-03-11T20:56:51.557Z,98698.66
2023-03-11T20:59:20.062Z,98702.56
2023-03-11T21:01:49.512Z,98694.38
2023-03-11T21:04:18.861Z,98696.88
2023-03-11T21:06:49.886Z,98704.50
2023-03-11T21:09:20.115Z,98701.97
2023-03-11T21:11:48.216Z,98704.91
2023-03-11T21:14:18.157Z,98702.63
2023-03-11T21:16:46.887Z,98703.47
2023-03-11T21:19:15.697Z,98700.44
2023-03-11T21:21:44.409Z,98694.53
2023-03-11T21:24:13.131Z,98699.22
2023-03-11T21:26:43.196Z,98701.72
2023-03-11T21:29:11.791Z,98704.22
2023-03-11T21:31:40.044Z,98705.38
2023-03-11T21:34:08.325Z,98703.81
2023-03-11T21:36:38.238Z,98707.03
2023-03-11T21:39:06.921Z,98710.34
2023-03-11T21:41:35.531Z,98712.22
2023-03-11T21:44:05.620Z,98718.53
2023-03-11T21:46:34.242Z,98717.66
2023-03-11T21:49:03.434Z,98710.09
2023-03-11T21:51:33.205Z,98716.47
2023-03-11T21:54:03.777Z,98717.09
2023-03-11T21:56:32.182Z,98720.28
2023-03-11T21:59:00.554Z,98717.72
2023-03-11T22:01:30.699Z,98731.44
2023-03-11T22:03:58.982Z,98716.59
2023-03-11T22:06:27.529Z,98714.63
2023-03-11T22:08:55.939Z,98720.34
2023-03-11T22:11:24.370Z,98723.34
2023-03-11T22:13:54.776Z,98721.09
2023-03-11T22:16:24.592Z,98721.13
2023-03-11T22:18:54.733Z,98728.09
2023-03-11T22:21:23.066Z,98728.28
2023-03-11T22:23:51.889Z,98727.63
2023-03-11T22:26:23.096Z,98724.19
2023-03-11T22:28:53.972Z,98721.25
2023-03-11T22:31:22.895Z,98730.66
2023-03-11T22:33:51.548Z,98727.66
2023-03-11T22:36:21.430Z,98734.28
2023-03-11T22:38:50.120Z,98736.59
2023-03-11T22:41:19.926Z,98743.66
2023-03-11T22:43:48.416Z,98740.03
2023-03-11T22:46:16.668Z,98743.34
2023-03-11T22:48:44.922Z,98739.31
2023-03-11T22:51:13.351Z,98744.78
2023-03-11T22:53:42.928Z,98735.25
2023-03-11T22:56:13.572Z,98740.31
2023-03-11T22:58:42.213Z,98733.56
2023-03-11T23:01:10.710Z,98737.56
2023-03-11T23:03:39.703Z,98733.72
2023-03-11T23:06:10.694Z,98735.13
2023-03-11T23:08:41.478Z,98731.44
2023-03-11T23:11:13.633Z,98727.97
2023-03-11T23:13:43.137Z,98726.69
2023-03-11T23:16:14.458Z,98733.97
2023-03-11T23:18:44.096Z,98729.88
2023-03-11T23:21:17.147Z,98730.69
2023-03-11T23:23:45.934Z,98734.31
2023-03-11T23:26:17.068Z,98733.44
2023-03-11T23:28:48.240Z,98738.72
2023-03-11T23:31:17.737Z,98746.00
2023-03-11T23:33:46.736Z,98737.94
2023-03-11T23:36:17.028Z,98745.56
2023-03-11T23:38:45.477Z,98743.25
2023-03-11T23:41:17.480Z,98747.97
2023-03-11T23:43:46.051Z,98746.91
2023-03-11T23:46:16.461Z,98748.56
2023-03-11T23:48:44.958Z,98748.56
2023-03-11T23:51:13.460Z,98742.84
2023-03-11T23:53:42.498Z,98750.25
2023-03-11T23:56:13.513Z,98755.34
2023-03-11T23:58:43.361Z,98749.44
